Sunday, December 17, 2017, 4:28 PM EST
Back to Local

KLBE, Latrobe / Westmorland

Location: Latrobe, PA, United States Lat: 40.283
Local Time: 4:28 PM EST (21:28 GMT) Lon: -79.4
Time Zone: US/Eastern Elev: 1184 ft

Show me the last for .
Show Decoded

2017-12-17 15:50 METAR KLBE 172050Z 24006KT 10SM OVC080 05/00 A3012 =
2017-12-17 14:50 METAR KLBE 171950Z 24006KT 10SM OVC120 05/M01 A3012 =
2017-12-17 13:50 METAR KLBE 171850Z 24006KT 10SM OVC120 05/M01 A3015 =
2017-12-17 12:50 METAR KLBE 171750Z 23006KT 10SM OVC100 05/M02 A3017 =
2017-12-17 11:45 METAR KLBE 171645Z 22007KT 10SM SKC 04/M02 A3020 =
2017-12-17 10:45 METAR KLBE 171545Z 21008KT 10SM SKC 04/M02 A3026 =
2017-12-17 09:45 METAR KLBE 171445Z 22006KT 10SM SKC 03/M02 A3022 =
2017-12-17 08:45 METAR KLBE 171345Z 22007KT 10SM SKC 00/M03 A3021 =
2017-12-17 07:45 METAR KLBE 171245Z 21004KT 10SM SKC 00/M03 A3020 =
2017-12-17 06:45 METAR KLBE 171145Z 21006KT 10SM SKC 00/M03 A3021 =
2017-12-17 05:55 METAR KLBE 171055Z AUTO 19009KT 10SM CLR 01/M03 A3018 RMK AO2 =
2017-12-17 05:35 METAR KLBE 171035Z AUTO 20008KT 10SM CLR 00/M03 A3019 RMK AO2 =
2017-12-17 05:15 METAR KLBE 171015Z AUTO 20008KT 10SM CLR 00/M03 A3018 RMK AO2 =
2017-12-17 04:55 METAR KLBE 170955Z AUTO 21009KT 10SM CLR 00/M03 A3018 RMK AO2 =
2017-12-17 04:35 METAR KLBE 170935Z AUTO 20007KT 10SM CLR 00/M04 A3017 RMK AO2 =
2017-12-17 04:15 METAR KLBE 170915Z AUTO 21008KT 10SM CLR 00/M04 A3018 RMK AO2 =
2017-12-17 03:55 METAR KLBE 170855Z AUTO 21010KT 10SM CLR 00/M03 A3019 RMK AO2 =
2017-12-17 03:35 METAR KLBE 170835Z AUTO 20008KT 10SM CLR 01/M03 A3019 RMK AO2 =
2017-12-17 03:15 METAR KLBE 170815Z AUTO 20007KT 10SM CLR 01/M04 A3019 RMK AO2 =
2017-12-17 02:55 METAR KLBE 170755Z AUTO 20008KT 10SM CLR 01/M04 A3019 RMK AO2 =
2017-12-17 02:35 METAR KLBE 170735Z AUTO 20008KT 10SM CLR 02/M03 A3019 RMK AO2 =
2017-12-17 02:15 METAR KLBE 170715Z AUTO 21009KT 10SM CLR 00/M03 A3019 RMK AO2 =
2017-12-17 01:55 METAR KLBE 170655Z AUTO 20007KT 10SM CLR 00/M04 A3018 RMK AO2 =
2017-12-17 01:35 METAR KLBE 170635Z AUTO 20009KT 10SM CLR 01/M04 A3018 RMK AO2 =
2017-12-17 01:15 METAR KLBE 170615Z AUTO 20008KT 10SM CLR 01/M04 A3016 RMK AO2 =
2017-12-17 00:55 METAR KLBE 170555Z AUTO 21008KT 10SM CLR 00/M04 A3016 RMK AO2 =
2017-12-17 00:35 METAR KLBE 170535Z AUTO 20008KT 10SM CLR 00/M04 A3016 RMK AO2 =
2017-12-17 00:15 METAR KLBE 170515Z AUTO 21008KT 10SM CLR 00/M04 A3016 RMK AO2 =
2017-12-16 23:55 METAR KLBE 170455Z AUTO 20006KT 10SM CLR M01/M04 A3016 RMK AO2 =
2017-12-16 23:35 METAR KLBE 170435Z AUTO 21006KT 10SM CLR 00/M04 A3016 RMK AO2 =
2017-12-16 23:15 METAR KLBE 170415Z AUTO 20007KT 10SM CLR 00/M04 A3015 RMK AO2 =
2017-12-16 22:55 METAR KLBE 170355Z AUTO 21006KT 10SM CLR 00/M04 A3015 RMK AO2 =
2017-12-16 22:35 METAR KLBE 170335Z AUTO 21007KT 10SM CLR M01/M04 A3015 RMK AO2 =
2017-12-16 22:15 METAR KLBE 170315Z AUTO 20005KT 10SM CLR M02/M05 A3014 RMK AO2 =
2017-12-16 21:50 METAR KLBE 170250Z 24006KT 8SM SKC M03/M05 A3013 =
2017-12-16 20:50 METAR KLBE 170150Z 24005KT 8SM SKC M03/M04 A3013 =
2017-12-16 19:50 METAR KLBE 170050Z 00000KT 8SM SKC M03/M04 A3013 =
2017-12-16 18:50 METAR KLBE 162350Z 24005KT 10SM SKC 00/M04 A3010 =
2017-12-16 17:50 METAR KLBE 162250Z 25005KT 10SM SKC 01/M03 A3007 =
2017-12-16 16:50 METAR KLBE 162150Z 25008KT 10SM SKC 03/M03 A3004 =

Support USWX by starting your Amazon purchase here.